Latest Weather Observations for Cerberus

IDV60801

Issued at 6:52 pm EST Tuesday 14 August 2018 (issued every 10 minutes, with the page automatically refreshed every 10 minutes)

About weather observations | Map of weather stations | Latest weather observations for VIC | Other Formats
Station Details ID: 086361 Name: CERBERUS Lat: -38.36 Lon: 145.18 Height: 12.69 m
Data from the previous 72 hours. | See also: Recent months at Cerberus
Date/Time
EST
Temp
°C
App
Temp
°C
Dew
Point
°C
Rel
Hum
%
Delta-T
°C
Wind Press
QNH
hPa
Press
MSL
hPa
Rain since
9am
mm
Dir  Spd
km/h
Gust
km/h
Spd
kts
Gust
kts
14/06:30pm 14.4 7.9 6.5 59 3.8 NNW 30 52 16 28 1010.4 1010.5 0.0
14/06:00pm 14.5 8.0 6.3 58 4.0 NNW 30 57 16 31 1010.5 1010.6 0.0
14/05:51pm 14.5 8.3 6.3 58 3.9 NNW 28 48 15 26 1010.5 1010.6 0.0
14/05:30pm 14.7 9.0 6.5 58 4.0 NNW 26 43 14 23 1010.8 1010.9 0.0
14/05:02pm 15.1 9.0 6.4 56 4.2 N 28 48 15 26 1011.0 1011.1 0.0
14/05:00pm 15.0 9.6 6.3 56 4.2 N 24 46 13 25 1011.1 1011.2 0.0
14/04:46pm 15.2 9.1 6.5 56 4.2 N 28 52 15 28 1011.3 1011.4 0.0
14/04:30pm 15.3 9.5 6.3 55 4.4 NNW 26 48 14 26 1011.8 1011.9 0.0
14/04:22pm 15.4 9.3 6.4 55 4.4 N 28 50 15 27 1011.8 1011.9 0.0
14/04:00pm 15.6 9.9 6.6 55 4.4 N 26 50 14 27 1012.2 1012.3 0.0
14/03:30pm 16.1 11.5 6.5 53 4.7 N 20 37 11 20 1013.1 1013.2 0.0
14/03:00pm 16.3 11.3 6.4 52 4.8 NNW 22 35 12 19 1013.9 1013.9 0.0
14/02:30pm 16.2 11.3 6.9 54 4.6 N 22 39 12 21 1014.3 1014.3 0.0
14/02:00pm 15.8 10.6 7.1 56 4.3 N 24 50 13 27 1014.7 1014.7 0.0
14/01:30pm 16.1 12.1 6.8 54 4.6 NNW 17 35 9 19 1015.5 1015.5 0.0
14/01:00pm 15.7 11.3 7.2 57 4.2 N 20 41 11 22 1016.3 1016.3 0.0
14/12:30pm 15.2 10.8 6.5 56 4.2 N 19 41 10 22 1016.9 1016.9 0.0
14/12:00pm 15.1 10.8 6.9 58 4.0 NNW 19 39 10 21 1017.9 1017.9 0.0
14/11:30am 14.0 9.6 6.4 60 3.7 NNW 19 33 10 18 1018.6 1018.6 0.0
14/11:00am 13.9 10.3 6.7 62 3.5 NNW 15 30 8 16 1019.2 1019.2 0.0
14/10:30am 13.2 8.3 6.8 65 3.1 NNW 22 37 12 20 1019.4 1019.4 0.0
14/10:00am 13.0 9.0 6.8 66 3.0 NNW 17 30 9 16 1019.9 1019.9 0.0
14/09:30am 12.4 8.4 6.7 68 2.7 NNW 17 33 9 18 1020.2 1020.2 0.0
14/09:00am 11.7 8.0 6.4 70 2.5 NNW 15 24 8 13 1020.8 1020.8 0.2
14/08:30am 11.3 7.6 6.2 71 2.4 NNW 15 26 8 14 1020.8 1020.8 0.2
14/08:00am 11.4 7.7 6.1 70 2.5 NW 15 24 8 13 1021.1 1021.1 0.2
14/07:30am 11.3 7.2 6.2 71 2.4 NW 17 32 9 17 1021.4 1021.4 0.2
14/07:00am 11.2 7.5 6.5 73 2.2 NW 15 22 8 12 1021.5 1021.5 0.2
14/06:30am 11.3 8.0 6.6 73 2.2 NW 13 24 7 13 1021.5 1021.5 0.2
14/06:00am 11.3 8.1 6.8 74 2.1 NW 13 20 7 11 1021.5 1021.5 0.2
14/05:30am 10.8 7.6 6.7 76 1.9 NW 13 24 7 13 1021.4 1021.4 0.2
14/05:00am 10.9 7.4 7.0 77 1.8 NW 15 22 8 12 1021.6 1021.6 0.2
14/04:30am 11.4 7.2 7.5 77 1.9 NW 19 28 10 15 1021.8 1021.8 0.2
14/04:00am 11.3 7.8 7.2 76 2.0 NW 15 22 8 12 1021.9 1021.9 0.2
14/03:30am 11.4 8.3 7.1 75 2.1 NW 13 19 7 10 1021.9 1021.9 0.2
14/03:00am 11.5 8.4 7.2 75 2.1 NW 13 24 7 13 1022.0 1022.0 0.2
14/02:30am 11.2 8.5 7.3 77 1.9 NW 11 17 6 9 1022.5 1022.5 0.2
14/02:00am 11.3 7.8 7.2 76 2.0 NW 15 24 8 13 1022.8 1022.8 0.2
14/01:30am 11.5 8.0 7.2 75 2.1 NW 15 24 8 13 1022.9 1022.9 0.2
14/01:00am 11.1 8.4 7.4 78 1.8 NW 11 20 6 11 1022.9 1022.9 0.2
14/12:30am 11.0 8.3 7.5 79 1.7 NW 11 17 6 9 1022.9 1022.9 0.2
14/12:00am 11.1 8.4 7.4 78 1.8 NW 11 17 6 9 1023.0 1023.0 0.2
 
Date/Time
EST
Temp
°C
App
Temp
°C
Dew
Point
°C
Rel
Hum
%
Delta-T
°C
Wind Press
QNH
hPa
Press
MSL
hPa
Rain since
9am
mm
Dir  Spd
km/h
Gust
km/h
Spd
kts
Gust
kts
13/11:30pm 11.5 8.1 7.8 78 1.8 NW 15 24 8 13 1023.0 1023.0 0.2
13/11:00pm 11.6 9.0 7.7 77 1.9 NW 11 20 6 11 1023.0 1023.0 0.2
13/10:30pm 11.7 8.7 7.8 77 1.9 NW 13 22 7 12 1023.2 1023.2 0.2
13/10:00pm 11.4 8.0 7.7 78 1.8 NW 15 24 8 13 1023.1 1023.1 0.2
13/09:30pm 11.2 8.2 7.5 78 1.8 NW 13 19 7 10 1023.2 1023.2 0.2
13/09:00pm 11.4 7.6 7.5 77 1.9 NW 17 30 9 16 1023.2 1023.2 0.2
13/08:30pm 11.7 7.9 7.6 76 2.0 NW 17 28 9 15 1023.2 1023.2 0.2
13/08:00pm 11.8 8.1 7.9 77 1.9 NW 17 28 9 15 1023.0 1023.0 0.2
13/07:30pm 11.3 7.6 8.0 80 1.6 NW 17 26 9 14 1022.9 1022.9 0.2
13/07:00pm 11.7 7.7 8.4 80 1.6 WNW 19 28 10 15 1022.7 1022.7 0.2
13/06:30pm 11.5 7.6 8.5 82 1.5 WNW 19 26 10 14 1022.3 1022.3 0.2
13/06:00pm 11.6 6.7 8.5 81 1.5 WNW 24 41 13 22 1022.3 1022.3 0.2
13/05:30pm 12.4 8.7 7.9 74 2.2 WNW 17 26 9 14 1022.1 1022.1 0.2
13/05:00pm 12.7 8.4 7.8 72 2.4 WNW 20 35 11 19 1021.8 1021.8 0.2
13/04:30pm 13.0 9.3 8.1 72 2.4 WNW 17 28 9 15 1021.8 1021.8 0.2
13/04:00pm 13.0 8.4 8.3 73 2.3 WNW 22 39 12 21 1021.9 1021.9 0.2
13/03:30pm 13.1 8.7 8.8 75 2.2 WNW 22 33 12 18 1021.9 1021.9 0.2
13/03:00pm 13.1 10.2 9.7 80 1.7 W 15 22 8 12 1022.0 1022.0 0.2
13/02:30pm 12.6 8.9 10.0 84 1.3 W 20 33 11 18 1021.9 1021.9 0.2
13/02:00pm 12.1 8.9 9.8 86 1.2 WNW 17 30 9 16 1021.7 1021.7 0.0
13/01:30pm 12.9 10.5 9.9 82 1.5 WNW 13 20 7 11 1021.7 1021.7 0.0
13/01:00pm 13.4 9.9 10.2 81 1.7 WNW 19 33 10 18 1021.8 1021.8 0.0
13/12:30pm 11.8 8.9 9.7 87 1.1 NW 15 24 8 13 1022.2 1022.2 0.0
13/12:00pm 11.7 8.0 9.4 86 1.2 WNW 19 32 10 17 1022.9 1022.9 0.0
13/11:30am 12.0 7.2 8.8 81 1.6 WNW 24 35 13 19 1022.9 1022.9 0.0
13/11:00am 12.7 8.3 9.0 78 1.9 WNW 22 35 12 19 1022.8 1022.8 0.0
13/10:30am 13.1 9.2 9.4 78 1.9 WNW 20 30 11 16 1022.7 1022.7 0.0
13/10:00am 12.4 8.1 9.4 82 1.5 WNW 22 35 12 19 1022.5 1022.5 0.0
13/09:30am 11.7 7.7 9.1 84 1.3 WNW 20 30 11 16 1022.5 1022.5 0.0
13/09:00am 11.1 7.7 9.0 87 1.0 WNW 17 24 9 13 1022.3 1022.3 0.8
13/08:30am 10.9 7.4 8.7 86 1.1 WNW 17 26 9 14 1022.1 1022.1 0.8
13/08:00am 11.0 6.6 8.8 86 1.1 WNW 22 33 12 18 1021.6 1021.6 0.8
13/07:30am 10.6 6.1 8.5 87 1.0 WNW 22 33 12 18 1020.8 1020.8 0.8
13/07:00am 10.6 6.1 8.7 88 0.9 WNW 22 33 12 18 1020.2 1020.2 0.8
13/06:30am 10.6 7.1 8.7 88 0.9 WNW 17 32 9 17 1019.7 1019.7 0.8
13/06:00am 10.6 7.1 8.7 88 0.9 WNW 17 26 9 14 1019.7 1019.7 0.8
13/05:30am 10.5 7.3 8.6 88 0.9 WNW 15 24 8 13 1019.7 1019.7 0.8
13/05:00am 10.7 7.2 8.8 88 0.9 WNW 17 33 9 18 1019.3 1019.3 0.8
13/04:30am 10.5 7.4 8.8 89 0.8 WNW 15 24 8 13 1019.3 1019.3 0.8
13/04:00am 10.4 7.3 8.7 89 0.8 WNW 15 22 8 12 1019.1 1019.1 0.8
13/03:30am 10.6 6.7 8.7 88 0.9 WNW 19 24 10 13 1018.9 1018.9 0.8
13/03:00am 10.6 7.1 8.7 88 0.9 WNW 17 30 9 16 1019.3 1019.3 0.8
13/02:30am 10.4 6.5 8.7 89 0.8 WNW 19 28 10 15 1019.3 1019.3 0.8
13/02:00am 10.3 6.8 8.6 89 0.8 WNW 17 24 9 13 1019.5 1019.5 0.8
13/01:30am 10.2 6.2 8.1 87 1.0 WNW 19 30 10 16 1019.5 1019.5 0.8
13/01:00am 10.5 5.9 8.3 86 1.1 WNW 22 33 12 18 1019.3 1019.3 0.8
13/12:30am 10.3 6.1 8.1 86 1.1 WNW 20 33 11 18 1019.2 1019.2 0.8
13/12:00am 10.4 5.4 8.2 86 1.1 WNW 24 39 13 21 1019.2 1019.2 0.8
 
Date/Time
EST
Temp
°C
App
Temp
°C
Dew
Point
°C
Rel
Hum
%
Delta-T
°C
Wind Press
QNH
hPa
Press
MSL
hPa
Rain since
9am
mm
Dir  Spd
km/h
Gust
km/h
Spd
kts
Gust
kts
12/11:30pm 10.5 6.3 8.3 86 1.1 NW 20 32 11 17 1019.4 1019.4 0.8
12/11:00pm 10.4 5.8 8.3 87 1.0 WNW 22 33 12 18 1019.7 1019.7 0.8
12/10:30pm 10.5 6.6 8.6 88 0.9 WNW 19 28 10 15 1019.7 1019.7 0.8
12/10:00pm 10.3 7.5 8.6 89 0.8 WNW 13 20 7 11 1019.7 1019.7 0.8
12/09:30pm 10.4 6.8 8.3 87 1.0 NW 17 28 9 15 1019.5 1019.5 0.4
12/09:00pm 11.0 6.0 8.2 83 1.4 WNW 24 35 13 19 1019.1 1019.1 0.4
12/08:30pm 10.4 6.3 7.8 84 1.3 NW 19 28 10 15 1018.8 1018.8 0.4
12/08:00pm 10.2 7.3 8.0 86 1.1 NW 13 20 7 11 1018.7 1018.7 0.4
12/07:30pm 10.4 6.3 8.0 85 1.2 NW 19 28 10 15 1018.9 1018.9 0.2
12/07:00pm 11.6 6.7 7.1 74 2.1 WNW 22 37 12 20 1018.6 1018.6 0.0
12/06:30pm 11.8 6.9 6.7 71 2.4 WNW 22 35 12 19 1018.0 1018.0 0.0
12/06:00pm 11.7 6.8 6.8 72 2.3 WNW 22 33 12 18 1017.7 1017.7 0.0
12/05:30pm 11.6 7.0 6.5 71 2.4 NW 20 33 11 18 1017.5 1017.5 0.0
12/05:00pm 11.7 5.6 6.4 70 2.5 NW 28 46 15 25 1017.4 1017.4 0.0
12/04:30pm 12.1 6.6 5.7 65 3.0 WNW 24 35 13 19 1017.5 1017.5 0.0
12/04:00pm 12.2 7.4 5.6 64 3.1 NW 20 39 11 21 1017.3 1017.3 0.0
12/03:30pm 12.3 7.5 5.7 64 3.1 NW 20 32 11 17 1017.5 1017.5 0.0
12/03:00pm 12.9 8.3 5.8 62 3.3 WNW 19 30 10 16 1017.4 1017.4 0.0
12/02:30pm 12.4 6.5 5.6 63 3.2 WNW 26 41 14 22 1017.4 1017.4 0.0
12/02:00pm 12.3 6.3 5.2 62 3.3 WNW 26 41 14 22 1017.1 1017.1 0.0
12/01:30pm 12.2 6.3 5.8 65 3.0 WNW 26 43 14 23 1017.4 1017.4 0.0
12/01:00pm 11.7 6.1 5.6 66 2.8 WNW 24 39 13 21 1017.7 1017.7 0.0
12/12:30pm 11.1 5.4 5.0 66 2.8 WNW 24 39 13 21 1018.0 1018.0 0.0
12/12:00pm 11.0 5.3 4.7 65 2.8 NW 24 35 13 19 1018.2 1018.2 0.0
12/11:30am 10.5 5.8 5.1 69 2.5 WNW 19 33 10 18 1018.4 1018.4 0.0
12/11:00am 10.0 5.0 4.8 70 2.3 WNW 20 33 11 18 1018.4 1018.4 0.0
12/10:30am 9.3 3.9 4.7 73 2.0 WNW 22 35 12 19 1018.2 1018.2 0.0
12/10:00am 8.8 3.9 4.2 73 2.0 WNW 19 30 10 16 1018.0 1018.0 0.0
12/09:30am 8.4 3.9 4.4 76 1.8 NW 17 26 9 14 1017.8 1017.8 0.0
12/09:00am 7.7 2.8 4.1 78 1.6 WNW 19 30 10 16 1017.7 1017.7 9.0
12/08:30am 7.3 3.2 4.3 81 1.3 NW 15 26 8 14 1017.6 1017.6 9.0
12/08:00am 6.5 2.3 3.8 83 1.1 NW 15 26 8 14 1017.3 1017.3 9.0
12/07:30am 6.0 1.7 3.5 84 1.0 NW 15 22 8 12 1016.8 1016.8 9.0
12/07:00am 6.0 1.8 3.7 85 1.0 WNW 15 24 8 13 1016.4 1016.4 9.0
12/06:30am 6.3 1.8 4.0 85 1.0 WNW 17 24 9 13 1016.0 1016.0 9.0
12/06:00am 6.3 1.4 4.1 86 0.9 WNW 19 26 10 14 1015.6 1015.6 9.0
12/05:30am 6.1 2.8 4.3 88 0.8 WNW 11 20 6 11 1015.4 1015.4 9.0
12/05:00am 5.6 3.1 3.8 88 0.8 WNW 6 9 3 5 1015.3 1015.3 8.6
12/04:30am 5.9 2.1 4.1 88 0.8 NW 13 20 7 11 1014.8 1014.8 8.6
12/04:00am 5.7 1.5 3.9 88 0.8 NW 15 22 8 12 1014.1 1014.1 7.8
12/03:30am 5.7 1.9 3.9 88 0.8 NW 13 22 7 12 1013.9 1013.9 7.8
12/03:00am 5.4 2.8 3.1 85 0.9 NNW 6 13 3 7 1013.8 1013.8 7.4
12/02:30am 6.0 2.1 3.5 84 1.0 W 13 20 7 11 1014.1 1014.1 6.8
12/02:00am 5.8 0.7 3.3 84 1.0 SW 19 33 10 18 1013.9 1013.9 6.4
12/01:30am 6.1 1.4 3.4 83 1.1 W 17 26 9 14 1013.4 1013.5 4.0
12/01:00am 6.6 1.4 3.4 80 1.3 WNW 20 33 11 18 1012.8 1012.9 3.4
12/12:30am 7.1 4.0 3.5 78 1.5 WNW 9 15 5 8 1012.4 1012.5 3.0
12/12:00am 7.1 3.6 3.7 79 1.4 WNW 11 20 6 11 1012.2 1012.3 3.0
 
Date/Time
EST
Temp
°C
App
Temp
°C
Dew
Point
°C
Rel
Hum
%
Delta-T
°C
Wind Press
QNH
hPa
Press
MSL
hPa
Rain since
9am
mm
Dir  Spd
km/h
Gust
km/h
Spd
kts
Gust
kts
11/11:30pm 6.9 3.8 3.5 79 1.4 WNW 9 13 5 7 1012.0 1012.1 3.0
11/11:00pm 6.9 3.4 3.5 79 1.4 WNW 11 17 6 9 1011.3 1011.4 3.0
11/10:30pm 7.1 2.8 3.5 78 1.5 W 15 20 8 11 1011.5 1011.6 3.0
11/10:00pm 6.8 3.7 3.6 80 1.4 WNW 9 15 5 8 1010.8 1010.9 3.0
11/09:30pm 7.3 3.9 4.1 80 1.4 WNW 11 19 6 10 1010.2 1010.3 3.0
11/09:00pm 7.4 3.4 4.7 83 1.2 WNW 15 24 8 13 1010.1 1010.2 3.0
11/08:30pm 6.5 3.9 4.0 84 1.1 WNW 7 13 4 7 1009.7 1009.8 3.0
11/08:00pm 6.5 4.0 3.8 83 1.1 NW 6 9 3 5 1009.3 1009.4 3.0
11/07:30pm 7.3 4.0 4.8 84 1.1 W 11 17 6 9 1008.9 1009.0 3.0
11/07:00pm 7.4 4.6 5.0 85 1.1 NW 9 15 5 8 1008.5 1008.6 2.6

Other Formats:

Comma delimited format used in spreadsheet applications
http://www.bom.gov.au/fwo/IDV60801/IDV60801.94898.axf

JavaScript Object Notation format (JSON) in row-major order
http://www.bom.gov.au/fwo/IDV60801/IDV60801.94898.json